createdAt,value
2023-01-28T00:00:49.678Z,2.20
2023-01-28T00:03:16.454Z,2.20
2023-01-28T00:05:43.430Z,2.20
2023-01-28T00:08:11.312Z,2.20
2023-01-28T00:10:40.998Z,2.20
2023-01-28T00:13:07.801Z,2.20
2023-01-28T00:15:34.745Z,2.20
2023-01-28T00:18:01.493Z,2.20
2023-01-28T00:20:28.240Z,2.20
2023-01-28T00:22:54.957Z,2.20
2023-01-28T00:25:21.696Z,2.20
2023-01-28T00:27:49.535Z,2.10
2023-01-28T00:30:17.006Z,2.10
2023-01-28T00:32:44.615Z,2.10
2023-01-28T00:35:13.532Z,2.10
2023-01-28T00:37:41.467Z,2.20
2023-01-28T00:40:09.975Z,2.20
2023-01-28T00:42:37.390Z,2.10
2023-01-28T00:45:04.421Z,2.10
2023-01-28T00:47:31.263Z,2.10
2023-01-28T00:49:58.482Z,2.10
2023-01-28T00:52:25.772Z,2.10
2023-01-28T00:54:54.536Z,2.20
2023-01-28T00:57:21.302Z,2.20
2023-01-28T00:59:48.080Z,2.20
2023-01-28T01:02:15.034Z,2.20
2023-01-28T01:04:54.744Z,2.20
2023-01-28T01:07:43.472Z,2.10
2023-01-28T01:10:14.791Z,2.10
2023-01-28T01:12:41.874Z,2.10
2023-01-28T01:15:10.385Z,2.10
2023-01-28T01:17:41.367Z,2.10
2023-01-28T01:20:10.101Z,2.00
2023-01-28T01:22:36.831Z,2.00
2023-01-28T01:25:04.632Z,2.00
2023-01-28T01:27:31.940Z,2.00
2023-01-28T01:29:59.031Z,2.00
2023-01-28T01:32:30.382Z,2.00
2023-01-28T01:34:57.129Z,2.00
2023-01-28T01:37:25.419Z,2.00
2023-01-28T01:39:52.221Z,1.90
2023-01-28T01:42:19.102Z,1.90
2023-01-28T01:45:04.491Z,1.90
2023-01-28T01:47:34.662Z,1.90
2023-01-28T01:50:04.251Z,1.90
2023-01-28T01:52:33.698Z,1.90
2023-01-28T01:55:01.806Z,1.90
2023-01-28T01:57:30.835Z,1.80
2023-01-28T02:00:05.677Z,1.90
2023-01-28T02:02:41.906Z,1.90
2023-01-28T02:05:09.827Z,1.90
2023-01-28T02:07:37.135Z,1.90
2023-01-28T02:10:05.291Z,1.90
2023-01-28T02:12:35.302Z,1.80
2023-01-28T02:15:06.020Z,1.80
2023-01-28T02:17:32.885Z,1.80
2023-01-28T02:20:01.276Z,1.80
2023-01-28T02:22:34.643Z,1.80
2023-01-28T02:25:15.309Z,1.80
2023-01-28T02:28:01.344Z,1.80
2023-01-28T02:30:36.634Z,1.80
2023-01-28T02:33:26.859Z,1.80
2023-01-28T02:35:54.523Z,1.80
2023-01-28T02:38:26.292Z,1.70
2023-01-28T02:41:03.236Z,1.70
2023-01-28T02:43:38.891Z,1.80
2023-01-28T02:46:31.536Z,1.70
2023-01-28T02:48:58.906Z,1.80
2023-01-28T02:51:35.429Z,1.70
2023-01-28T02:54:13.397Z,1.70
2023-01-28T02:56:45.784Z,1.70
2023-01-28T02:59:30.903Z,1.80
2023-01-28T03:02:20.415Z,1.70
2023-01-28T03:05:07.515Z,1.70
2023-01-28T03:07:35.850Z,1.70
2023-01-28T03:10:06.041Z,1.70
2023-01-28T03:12:51.957Z,1.80
2023-01-28T03:15:45.155Z,1.70
2023-01-28T03:18:32.459Z,1.70
2023-01-28T03:21:30.563Z,1.70
2023-01-28T03:24:21.783Z,1.70
2023-01-28T03:27:20.908Z,1.70
2023-01-28T03:30:15.777Z,1.70
2023-01-28T03:33:01.854Z,1.70
2023-01-28T03:35:49.375Z,1.60
2023-01-28T03:38:21.103Z,1.70
2023-01-28T03:40:49.468Z,1.60
2023-01-28T03:43:16.622Z,1.60
2023-01-28T03:45:46.297Z,1.70
2023-01-28T03:48:15.300Z,1.70
2023-01-28T03:50:42.168Z,1.70
2023-01-28T03:53:16.959Z,1.70
2023-01-28T03:55:52.020Z,1.70
2023-01-28T03:58:19.601Z,1.70
2023-01-28T04:00:47.078Z,1.70
2023-01-28T04:03:18.507Z,1.70
2023-01-28T04:06:06.780Z,1.70
2023-01-28T04:08:54.525Z,1.70
2023-01-28T04:11:32.707Z,1.70
2023-01-28T04:14:02.426Z,1.70
2023-01-28T04:16:40.963Z,1.60
2023-01-28T04:19:07.711Z,1.60
2023-01-28T04:21:35.479Z,1.60
2023-01-28T04:24:04.311Z,1.60
2023-01-28T04:26:31.142Z,1.50
2023-01-28T04:28:58.280Z,1.60
2023-01-28T04:31:25.669Z,1.50
2023-01-28T04:33:59.262Z,1.50
2023-01-28T04:36:52.574Z,1.50
2023-01-28T04:39:29.310Z,1.40
2023-01-28T04:42:09.520Z,1.40
2023-01-28T04:44:55.663Z,1.30
2023-01-28T04:47:37.975Z,1.30
2023-01-28T04:50:23.286Z,1.30
2023-01-28T04:53:19.092Z,1.30
2023-01-28T04:55:57.427Z,1.30
2023-01-28T04:58:25.027Z,1.30
2023-01-28T05:00:55.270Z,1.20
2023-01-28T05:03:22.068Z,1.20
2023-01-28T05:05:48.880Z,1.20
2023-01-28T05:08:35.856Z,1.20
2023-01-28T05:11:03.014Z,1.10
2023-01-28T05:13:29.857Z,1.10
2023-01-28T05:15:56.736Z,1.20
2023-01-28T05:18:23.606Z,1.10
2023-01-28T05:21:02.635Z,1.10
2023-01-28T05:23:30.346Z,1.10
2023-01-28T05:25:59.275Z,1.00
2023-01-28T05:28:26.573Z,1.00
2023-01-28T05:30:53.390Z,1.10
2023-01-28T05:33:20.285Z,1.00
2023-01-28T05:35:47.220Z,1.00
2023-01-28T05:38:15.471Z,1.00
2023-01-28T05:40:42.473Z,0.90
2023-01-28T05:43:09.346Z,0.80
2023-01-28T05:45:44.031Z,0.90
2023-01-28T05:48:14.286Z,0.80
2023-01-28T05:51:07.509Z,0.80
2023-01-28T05:53:36.758Z,0.80
2023-01-28T05:56:03.807Z,0.70
2023-01-28T05:58:32.229Z,0.70
2023-01-28T06:01:02.213Z,0.70
2023-01-28T06:03:37.074Z,0.70
2023-01-28T06:06:04.056Z,0.70
2023-01-28T06:08:31.674Z,0.70
2023-01-28T06:10:59.380Z,0.70
2023-01-28T06:13:26.341Z,0.70
2023-01-28T06:16:14.784Z,0.60
2023-01-28T06:19:04.683Z,0.70
2023-01-28T06:21:31.510Z,0.70
2023-01-28T06:23:58.819Z,0.70
2023-01-28T06:26:25.579Z,0.60
2023-01-28T06:28:52.296Z,0.70
2023-01-28T06:31:19.243Z,0.70
2023-01-28T06:33:46.156Z,0.70
2023-01-28T06:36:12.886Z,0.60
2023-01-28T06:38:39.680Z,0.60
2023-01-28T06:41:06.404Z,0.60
2023-01-28T06:43:33.171Z,0.60
2023-01-28T06:46:00.948Z,0.50
2023-01-28T06:48:28.098Z,0.50
2023-01-28T06:50:54.912Z,0.50
2023-01-28T06:53:22.124Z,0.50
2023-01-28T06:55:49.070Z,0.50
2023-01-28T06:58:15.830Z,0.50
2023-01-28T07:00:42.628Z,0.50
2023-01-28T07:03:09.472Z,0.40
2023-01-28T07:05:36.294Z,0.40
2023-01-28T07:08:03.229Z,0.40
2023-01-28T07:10:30.220Z,0.40
2023-01-28T07:12:57.020Z,0.40
2023-01-28T07:15:23.694Z,0.40
2023-01-28T07:17:50.410Z,0.40
2023-01-28T07:20:17.621Z,0.40
2023-01-28T07:22:45.050Z,0.30
2023-01-28T07:25:12.714Z,0.30
2023-01-28T07:27:39.553Z,0.30
2023-01-28T07:30:06.571Z,0.30
2023-01-28T07:32:35.494Z,0.30
2023-01-28T07:35:02.286Z,0.30
2023-01-28T07:37:29.006Z,0.30
2023-01-28T07:39:55.731Z,0.30
2023-01-28T07:42:22.603Z,0.20
2023-01-28T07:44:51.783Z,0.20
2023-01-28T07:47:19.505Z,0.20
2023-01-28T07:49:46.305Z,0.20
2023-01-28T07:52:13.231Z,0.20
2023-01-28T07:54:39.942Z,0.20
2023-01-28T07:57:12.792Z,0.20
2023-01-28T07:59:39.543Z,0.20
2023-01-28T08:02:06.319Z,0.20
2023-01-28T08:04:33.234Z,0.20
2023-01-28T08:07:00.049Z,0.20
2023-01-28T08:09:26.742Z,0.20
2023-01-28T08:11:53.532Z,0.20
2023-01-28T08:14:20.241Z,0.20
2023-01-28T08:16:47.504Z,0.10
2023-01-28T08:19:14.313Z,0.20
2023-01-28T08:21:41.078Z,0.20
2023-01-28T08:24:08.004Z,0.20
2023-01-28T08:26:34.836Z,0.20
2023-01-28T08:29:01.598Z,0.20
2023-01-28T08:31:29.483Z,0.20
2023-01-28T08:33:56.340Z,0.20
2023-01-28T08:36:23.219Z,0.20
2023-01-28T08:38:54.284Z,0.20
2023-01-28T08:41:22.147Z,0.20
2023-01-28T08:43:49.074Z,0.20
2023-01-28T08:46:16.393Z,0.30
2023-01-28T08:48:43.195Z,0.30
2023-01-28T08:51:10.012Z,0.30
2023-01-28T08:53:36.823Z,0.30
2023-01-28T08:56:03.795Z,0.30
2023-01-28T08:58:30.537Z,0.30
2023-01-28T09:00:57.304Z,0.30
2023-01-28T09:03:24.123Z,0.40
2023-01-28T09:05:50.868Z,0.40
2023-01-28T09:08:17.677Z,0.50
2023-01-28T09:10:44.506Z,0.50
2023-01-28T09:13:13.338Z,0.60
2023-01-28T09:15:40.681Z,0.60
2023-01-28T09:18:07.455Z,0.60
2023-01-28T09:20:34.420Z,0.60
2023-01-28T09:23:01.680Z,0.70
2023-01-28T09:25:28.498Z,0.80
2023-01-28T09:27:55.264Z,0.80
2023-01-28T09:30:22.106Z,0.80
2023-01-28T09:32:52.718Z,0.80
2023-01-28T09:35:19.530Z,0.80
2023-01-28T09:37:46.522Z,0.80
2023-01-28T09:40:39.713Z,0.80
2023-01-28T09:43:06.512Z,0.90
2023-01-28T09:45:36.617Z,0.90
2023-01-28T09:48:04.882Z,0.90
2023-01-28T09:50:39.751Z,0.90
2023-01-28T09:53:10.212Z,1.00
2023-01-28T09:55:41.626Z,1.00
2023-01-28T09:58:13.500Z,1.00
2023-01-28T10:00:40.288Z,1.10
2023-01-28T10:03:26.129Z,1.10
2023-01-28T10:06:14.406Z,1.10
2023-01-28T10:08:50.652Z,1.20
2023-01-28T10:11:29.463Z,1.20
2023-01-28T10:14:02.247Z,1.20
2023-01-28T10:16:37.396Z,1.20
2023-01-28T10:19:10.579Z,1.30
2023-01-28T10:21:41.839Z,1.30
2023-01-28T10:24:17.034Z,1.30
2023-01-28T10:26:44.254Z,1.30
2023-01-28T10:29:18.384Z,1.30
2023-01-28T10:32:14.887Z,1.40
2023-01-28T10:34:41.763Z,1.40
2023-01-28T10:37:12.994Z,1.40
2023-01-28T10:39:39.748Z,1.40
2023-01-28T10:42:35.774Z,1.40
2023-01-28T10:45:05.999Z,1.40
2023-01-28T10:47:41.072Z,1.40
2023-01-28T10:50:15.147Z,1.40
2023-01-28T10:53:01.577Z,1.40
2023-01-28T10:55:48.603Z,1.40
2023-01-28T10:58:18.203Z,1.50
2023-01-28T11:00:45.178Z,1.50
2023-01-28T11:03:21.549Z,1.50
2023-01-28T11:05:52.339Z,1.50
2023-01-28T11:08:19.755Z,1.60
2023-01-28T11:10:47.288Z,1.60
2023-01-28T11:13:17.260Z,1.60
2023-01-28T11:15:48.358Z,1.70
2023-01-28T11:18:21.239Z,1.70
2023-01-28T11:21:07.611Z,1.70
2023-01-28T11:23:38.637Z,1.80
2023-01-28T11:26:06.706Z,1.80
2023-01-28T11:28:34.089Z,1.80
2023-01-28T11:31:02.089Z,1.90
2023-01-28T11:33:32.807Z,1.90
2023-01-28T11:36:07.691Z,2.00
2023-01-28T11:38:34.609Z,2.00
2023-01-28T11:41:01.421Z,2.00
2023-01-28T11:43:29.159Z,2.10
2023-01-28T11:45:55.860Z,2.10
2023-01-28T11:48:31.903Z,2.10
2023-01-28T11:51:09.511Z,2.10
2023-01-28T11:53:40.704Z,2.10
2023-01-28T11:56:13.847Z,2.10
2023-01-28T11:58:52.811Z,2.10
2023-01-28T12:01:34.953Z,2.20
2023-01-28T12:04:13.179Z,2.20
2023-01-28T12:06:43.042Z,2.20
2023-01-28T12:09:09.749Z,2.30
2023-01-28T12:12:14.161Z,2.30
2023-01-28T12:14:50.108Z,2.30
2023-01-28T12:17:40.162Z,2.30
2023-01-28T12:20:18.630Z,2.30
2023-01-28T12:22:48.835Z,2.30
2023-01-28T12:25:20.958Z,2.40
2023-01-28T12:27:55.522Z,2.50
2023-01-28T12:30:43.766Z,2.40
2023-01-28T12:33:19.805Z,2.50
2023-01-28T12:35:51.182Z,2.50
2023-01-28T12:38:36.837Z,2.50
2023-01-28T12:41:20.436Z,2.60
2023-01-28T12:44:04.203Z,2.70
2023-01-28T12:46:40.081Z,2.80
2023-01-28T12:49:21.996Z,2.80
2023-01-28T12:52:07.808Z,2.80
2023-01-28T12:54:57.959Z,2.80
2023-01-28T12:57:27.398Z,2.80
2023-01-28T13:00:20.474Z,2.80
2023-01-28T13:02:50.670Z,2.80
2023-01-28T13:05:20.270Z,2.80
2023-01-28T13:07:50.243Z,2.80
2023-01-28T13:10:36.302Z,2.80
2023-01-28T13:13:04.294Z,2.70
2023-01-28T13:15:31.582Z,2.70
2023-01-28T13:18:02.923Z,2.70
2023-01-28T13:20:31.228Z,2.80
2023-01-28T13:23:02.726Z,2.70
2023-01-28T13:25:29.518Z,2.80
2023-01-28T13:27:57.599Z,2.80
2023-01-28T13:30:24.667Z,2.80
2023-01-28T13:33:05.331Z,2.80
2023-01-28T13:35:39.775Z,2.80
2023-01-28T13:38:08.293Z,2.80
2023-01-28T13:40:35.766Z,2.90
2023-01-28T13:43:07.051Z,2.80
2023-01-28T13:45:34.047Z,2.80
2023-01-28T13:48:12.966Z,2.80
2023-01-28T13:50:41.558Z,2.80
2023-01-28T13:53:27.041Z,2.90
2023-01-28T13:55:56.702Z,2.90
2023-01-28T13:58:35.547Z,3.00
2023-01-28T14:01:20.975Z,3.00
2023-01-28T14:03:53.816Z,3.00
2023-01-28T14:06:51.389Z,3.10
2023-01-28T14:09:29.566Z,3.10
2023-01-28T14:12:11.599Z,3.10
2023-01-28T14:14:44.589Z,3.10
2023-01-28T14:17:29.941Z,3.10
2023-01-28T14:19:57.842Z,3.10
2023-01-28T14:22:24.631Z,3.10
2023-01-28T14:24:51.935Z,3.20
2023-01-28T14:27:31.275Z,3.20
2023-01-28T14:30:00.987Z,3.10
2023-01-28T14:32:29.187Z,3.10
2023-01-28T14:34:56.811Z,3.20
2023-01-28T14:37:25.652Z,3.20
2023-01-28T14:39:56.062Z,3.10
2023-01-28T14:42:45.742Z,3.20
2023-01-28T14:45:32.655Z,3.10
2023-01-28T14:48:02.805Z,3.20
2023-01-28T14:50:29.455Z,3.20
2023-01-28T14:53:05.264Z,3.30
2023-01-28T14:55:44.285Z,3.30
2023-01-28T14:58:20.855Z,3.30
2023-01-28T15:00:55.379Z,3.30
2023-01-28T15:03:25.389Z,3.30
2023-01-28T15:06:23.994Z,3.30
2023-01-28T15:09:05.018Z,3.30
2023-01-28T15:11:36.212Z,3.30
2023-01-28T15:14:03.068Z,3.30
2023-01-28T15:16:32.706Z,3.30
2023-01-28T15:19:00.696Z,3.30
2023-01-28T15:21:28.852Z,3.30
2023-01-28T15:23:57.216Z,3.20
2023-01-28T15:26:28.556Z,3.20
2023-01-28T15:28:56.071Z,3.20
2023-01-28T15:31:30.418Z,3.20
2023-01-28T15:34:00.291Z,3.20
2023-01-28T15:36:27.433Z,3.10
2023-01-28T15:38:54.653Z,3.10
2023-01-28T15:41:23.187Z,3.10
2023-01-28T15:43:51.676Z,3.10
2023-01-28T15:46:18.709Z,3.10
2023-01-28T15:48:47.440Z,3.10
2023-01-28T15:51:19.847Z,3.10
2023-01-28T15:53:47.779Z,3.00
2023-01-28T15:56:15.377Z,3.00
2023-01-28T15:58:42.815Z,3.10
2023-01-28T16:01:09.659Z,3.00
2023-01-28T16:03:39.530Z,3.00
2023-01-28T16:06:11.080Z,3.00
2023-01-28T16:08:45.108Z,3.00
2023-01-28T16:11:21.413Z,3.10
2023-01-28T16:13:48.170Z,3.00
2023-01-28T16:16:14.934Z,3.00
2023-01-28T16:18:47.334Z,3.00
2023-01-28T16:21:20.377Z,3.00
2023-01-28T16:23:50.831Z,3.00
2023-01-28T16:26:24.368Z,3.00
2023-01-28T16:28:51.191Z,3.10
2023-01-28T16:31:18.643Z,3.00
2023-01-28T16:33:45.751Z,3.00
2023-01-28T16:36:13.544Z,3.00
2023-01-28T16:38:41.052Z,3.00
2023-01-28T16:41:34.105Z,3.00
2023-01-28T16:44:05.873Z,3.00
2023-01-28T16:46:35.745Z,3.00
2023-01-28T16:49:02.636Z,3.00
2023-01-28T16:51:29.559Z,3.00
2023-01-28T16:53:57.192Z,3.00
2023-01-28T16:56:43.983Z,3.00
2023-01-28T16:59:11.860Z,3.00
2023-01-28T17:01:38.624Z,3.00
2023-01-28T17:04:11.529Z,3.00
2023-01-28T17:06:39.385Z,3.00
2023-01-28T17:09:06.136Z,3.00
2023-01-28T17:11:33.200Z,3.00
2023-01-28T17:14:00.183Z,3.00
2023-01-28T17:16:27.193Z,3.00
2023-01-28T17:18:54.350Z,3.10
2023-01-28T17:21:21.149Z,3.00
2023-01-28T17:23:48.098Z,3.00
2023-01-28T17:26:15.675Z,3.00
2023-01-28T17:28:42.491Z,3.00
2023-01-28T17:31:12.341Z,3.00
2023-01-28T17:33:39.921Z,3.00
2023-01-28T17:36:07.035Z,3.00
2023-01-28T17:38:33.827Z,3.00
2023-01-28T17:41:04.206Z,3.00
2023-01-28T17:43:31.192Z,3.00
2023-01-28T17:45:58.251Z,3.10
2023-01-28T17:48:25.213Z,3.00
2023-01-28T17:50:56.218Z,3.00
2023-01-28T17:53:23.144Z,3.00
2023-01-28T17:55:49.903Z,3.00
2023-01-28T17:58:16.794Z,3.00
2023-01-28T18:00:43.580Z,3.00
2023-01-28T18:03:12.213Z,3.00
2023-01-28T18:05:38.962Z,3.00
2023-01-28T18:08:05.942Z,3.00
2023-01-28T18:10:32.740Z,3.00
2023-01-28T18:12:59.437Z,3.00
2023-01-28T18:15:26.369Z,3.00
2023-01-28T18:17:53.205Z,3.00
2023-01-28T18:20:20.421Z,3.10
2023-01-28T18:22:47.122Z,3.10
2023-01-28T18:25:18.182Z,3.10
2023-01-28T18:27:45.630Z,3.00
2023-01-28T18:30:14.178Z,3.10
2023-01-28T18:32:41.103Z,3.10
2023-01-28T18:35:08.197Z,3.10
2023-01-28T18:37:34.936Z,3.10
2023-01-28T18:40:01.953Z,3.10
2023-01-28T18:42:28.780Z,3.10
2023-01-28T18:44:55.482Z,3.10
2023-01-28T18:47:22.306Z,3.10
2023-01-28T18:49:49.107Z,3.10
2023-01-28T18:52:15.885Z,3.10
2023-01-28T18:54:42.610Z,3.10
2023-01-28T18:57:09.396Z,3.20
2023-01-28T18:59:36.189Z,3.20
2023-01-28T19:02:02.969Z,3.10
2023-01-28T19:04:30.048Z,3.20
2023-01-28T19:06:57.407Z,3.10
2023-01-28T19:09:24.188Z,3.10
2023-01-28T19:11:50.942Z,3.20
2023-01-28T19:14:17.674Z,3.20
2023-01-28T19:16:44.707Z,3.20
2023-01-28T19:19:11.569Z,3.20
2023-01-28T19:21:38.290Z,3.20
2023-01-28T19:24:09.809Z,3.20
2023-01-28T19:26:36.920Z,3.20
2023-01-28T19:29:06.002Z,3.20
2023-01-28T19:31:32.814Z,3.20
2023-01-28T19:34:00.024Z,3.20
2023-01-28T19:36:28.094Z,3.20
2023-01-28T19:38:59.255Z,3.20
2023-01-28T19:41:26.414Z,3.20
2023-01-28T19:43:53.091Z,3.20
2023-01-28T19:46:19.969Z,3.20
2023-01-28T19:48:47.037Z,3.20
2023-01-28T19:51:14.531Z,3.20
2023-01-28T19:53:41.945Z,3.30
2023-01-28T19:56:13.047Z,3.20
2023-01-28T19:58:41.139Z,3.20
2023-01-28T20:01:09.394Z,3.20
2023-01-28T20:03:36.340Z,3.20
2023-01-28T20:06:04.973Z,3.20
2023-01-28T20:08:31.897Z,3.20
2023-01-28T20:11:06.219Z,3.20
2023-01-28T20:13:33.617Z,3.20
2023-01-28T20:16:04.261Z,3.20
2023-01-28T20:18:31.018Z,3.20
2023-01-28T20:20:57.700Z,3.20
2023-01-28T20:23:24.477Z,3.20
2023-01-28T20:25:51.963Z,3.20
2023-01-28T20:28:18.763Z,3.20
2023-01-28T20:30:45.578Z,3.20
2023-01-28T20:33:12.551Z,3.20
2023-01-28T20:35:39.396Z,3.20
2023-01-28T20:38:06.482Z,3.10
2023-01-28T20:40:33.208Z,3.10
2023-01-28T20:42:59.936Z,3.10
2023-01-28T20:45:26.620Z,3.10
2023-01-28T20:47:54.007Z,3.10
2023-01-28T20:50:20.765Z,3.10
2023-01-28T20:52:47.556Z,3.10
2023-01-28T20:55:15.434Z,3.20
2023-01-28T20:57:44.456Z,3.10
2023-01-28T21:00:11.885Z,3.20
2023-01-28T21:02:39.916Z,3.20
2023-01-28T21:05:06.902Z,3.20
2023-01-28T21:07:33.632Z,3.20
2023-01-28T21:10:02.335Z,3.20
2023-01-28T21:12:30.193Z,3.30
2023-01-28T21:14:57.111Z,3.30
2023-01-28T21:17:24.289Z,3.30
2023-01-28T21:19:51.043Z,3.30
2023-01-28T21:22:17.900Z,3.30
2023-01-28T21:24:46.819Z,3.30
2023-01-28T21:27:13.731Z,3.30
2023-01-28T21:29:40.497Z,3.20
2023-01-28T21:32:07.309Z,3.20
2023-01-28T21:34:34.037Z,3.30
2023-01-28T21:37:00.860Z,3.20
2023-01-28T21:39:27.536Z,3.20
2023-01-28T21:41:54.560Z,3.20
2023-01-28T21:44:21.788Z,3.20
2023-01-28T21:46:48.517Z,3.10
2023-01-28T21:49:15.336Z,3.20
2023-01-28T21:51:48.495Z,3.20
2023-01-28T21:54:16.266Z,3.20
2023-01-28T21:56:46.618Z,3.20
2023-01-28T21:59:28.670Z,3.30
2023-01-28T22:01:58.646Z,3.20
2023-01-28T22:04:49.749Z,3.20
2023-01-28T22:07:17.438Z,3.30
2023-01-28T22:09:44.899Z,3.30
2023-01-28T22:12:14.727Z,3.30
2023-01-28T22:14:42.214Z,3.30
2023-01-28T22:17:11.041Z,3.30
2023-01-28T22:19:38.706Z,3.30
2023-01-28T22:22:05.744Z,3.30
2023-01-28T22:24:32.560Z,3.30
2023-01-28T22:26:59.720Z,3.30
2023-01-28T22:29:26.929Z,3.30
2023-01-28T22:31:54.183Z,3.40
2023-01-28T22:34:21.245Z,3.40
2023-01-28T22:36:48.193Z,3.40
2023-01-28T22:39:16.159Z,3.30
2023-01-28T22:41:43.515Z,3.30
2023-01-28T22:44:10.306Z,3.40
2023-01-28T22:46:37.173Z,3.30
2023-01-28T22:49:03.989Z,3.30
2023-01-28T22:51:35.090Z,3.40
2023-01-28T22:54:02.601Z,3.40
2023-01-28T22:56:29.760Z,3.30
2023-01-28T22:58:57.295Z,3.40
2023-01-28T23:01:24.213Z,3.40
2023-01-28T23:03:51.055Z,3.50
2023-01-28T23:06:19.059Z,3.40
2023-01-28T23:08:46.356Z,3.40
2023-01-28T23:11:24.994Z,3.40
2023-01-28T23:14:11.369Z,3.50
2023-01-28T23:16:56.583Z,3.50
2023-01-28T23:19:41.943Z,3.50
2023-01-28T23:22:30.517Z,3.50
2023-01-28T23:24:57.442Z,3.50
2023-01-28T23:27:24.205Z,3.50
2023-01-28T23:29:50.990Z,3.40
2023-01-28T23:32:17.767Z,3.50
2023-01-28T23:34:44.653Z,3.50
2023-01-28T23:37:12.990Z,3.50
2023-01-28T23:39:40.475Z,3.50
2023-01-28T23:42:10.248Z,3.50
2023-01-28T23:44:36.997Z,3.50
2023-01-28T23:47:03.838Z,3.50
2023-01-28T23:49:30.564Z,3.60
2023-01-28T23:51:57.434Z,3.60
2023-01-28T23:54:24.131Z,3.60
2023-01-28T23:56:50.886Z,3.60
2023-01-28T23:59:17.902Z,3.60
